sensor_id;sensor_type;location;lat;lon;timestamp;P1;durP1;ratioP1;P2;durP2;ratioP2
26052;SDS011;13826;51.186;4.450;2022-11-20T00:01:46;35.65;;;18.55;;
26052;SDS011;13826;51.186;4.450;2022-11-20T00:04:12;32.40;;;19.27;;
26052;SDS011;13826;51.186;4.450;2022-11-20T00:06:37;33.38;;;18.95;;
26052;SDS011;13826;51.186;4.450;2022-11-20T00:09:03;36.78;;;19.02;;
26052;SDS011;13826;51.186;4.450;2022-11-20T00:11:30;37.10;;;18.67;;
26052;SDS011;13826;51.186;4.450;2022-11-20T00:13:57;31.83;;;17.65;;
26052;SDS011;13826;51.186;4.450;2022-11-20T00:16:25;36.25;;;18.67;;
26052;SDS011;13826;51.186;4.450;2022-11-20T00:18:54;34.67;;;18.80;;
26052;SDS011;13826;51.186;4.450;2022-11-20T00:21:24;31.15;;;17.88;;
26052;SDS011;13826;51.186;4.450;2022-11-20T00:23:52;34.20;;;18.45;;
26052;SDS011;13826;51.186;4.450;2022-11-20T00:26:20;34.55;;;19.42;;
26052;SDS011;13826;51.186;4.450;2022-11-20T00:28:50;37.38;;;17.67;;
26052;SDS011;13826;51.186;4.450;2022-11-20T00:31:17;32.47;;;18.88;;
26052;SDS011;13826;51.186;4.450;2022-11-20T00:33:43;34.95;;;19.20;;
26052;SDS011;13826;51.186;4.450;2022-11-20T00:36:10;33.58;;;17.48;;
26052;SDS011;13826;51.186;4.450;2022-11-20T00:38:38;32.90;;;17.77;;
26052;SDS011;13826;51.186;4.450;2022-11-20T00:41:04;34.83;;;18.83;;
26052;SDS011;13826;51.186;4.450;2022-11-20T00:43:33;29.50;;;16.40;;
26052;SDS011;13826;51.186;4.450;2022-11-20T00:46:13;30.88;;;17.85;;
26052;SDS011;13826;51.186;4.450;2022-11-20T00:48:40;28.52;;;17.27;;
26052;SDS011;13826;51.186;4.450;2022-11-20T00:51:07;32.35;;;17.67;;
26052;SDS011;13826;51.186;4.450;2022-11-20T00:53:33;29.13;;;18.02;;
26052;SDS011;13826;51.186;4.450;2022-11-20T00:56:03;34.67;;;17.88;;
26052;SDS011;13826;51.186;4.450;2022-11-20T00:58:31;27.83;;;17.30;;
26052;SDS011;13826;51.186;4.450;2022-11-20T01:01:15;31.05;;;18.42;;
26052;SDS011;13826;51.186;4.450;2022-11-20T01:03:43;29.75;;;17.45;;
26052;SDS011;13826;51.186;4.450;2022-11-20T01:06:20;31.52;;;17.13;;
26052;SDS011;13826;51.186;4.450;2022-11-20T01:08:48;30.70;;;17.80;;
26052;SDS011;13826;51.186;4.450;2022-11-20T01:11:19;30.73;;;17.55;;
26052;SDS011;13826;51.186;4.450;2022-11-20T01:13:48;33.50;;;18.38;;
26052;SDS011;13826;51.186;4.450;2022-11-20T01:16:27;33.40;;;17.98;;
26052;SDS011;13826;51.186;4.450;2022-11-20T01:19:00;30.70;;;18.20;;
26052;SDS011;13826;51.186;4.450;2022-11-20T01:21:28;33.88;;;17.05;;
26052;SDS011;13826;51.186;4.450;2022-11-20T01:23:56;31.98;;;17.15;;
26052;SDS011;13826;51.186;4.450;2022-11-20T01:26:23;30.45;;;17.70;;
26052;SDS011;13826;51.186;4.450;2022-11-20T01:28:51;29.85;;;17.17;;
26052;SDS011;13826;51.186;4.450;2022-11-20T01:31:19;32.75;;;18.73;;
26052;SDS011;13826;51.186;4.450;2022-11-20T01:33:47;29.52;;;16.85;;
26052;SDS011;13826;51.186;4.450;2022-11-20T01:36:14;31.58;;;17.35;;
26052;SDS011;13826;51.186;4.450;2022-11-20T01:38:41;33.88;;;18.50;;
26052;SDS011;13826;51.186;4.450;2022-11-20T01:41:07;31.83;;;17.40;;
26052;SDS011;13826;51.186;4.450;2022-11-20T01:43:34;33.67;;;18.88;;
26052;SDS011;13826;51.186;4.450;2022-11-20T01:46:05;32.67;;;17.95;;
26052;SDS011;13826;51.186;4.450;2022-11-20T01:48:46;37.63;;;19.08;;
26052;SDS011;13826;51.186;4.450;2022-11-20T01:53:53;32.95;;;17.73;;
26052;SDS011;13826;51.186;4.450;2022-11-20T01:56:23;30.48;;;18.15;;
26052;SDS011;13826;51.186;4.450;2022-11-20T01:58:51;32.58;;;17.45;;
26052;SDS011;13826;51.186;4.450;2022-11-20T02:01:21;31.35;;;18.48;;
26052;SDS011;13826;51.186;4.450;2022-11-20T02:03:47;31.02;;;17.15;;
26052;SDS011;13826;51.186;4.450;2022-11-20T02:06:34;32.05;;;18.08;;
26052;SDS011;13826;51.186;4.450;2022-11-20T02:09:03;36.40;;;18.10;;
26052;SDS011;13826;51.186;4.450;2022-11-20T02:11:30;32.97;;;18.23;;
26052;SDS011;13826;51.186;4.450;2022-11-20T02:13:56;33.67;;;18.10;;
26052;SDS011;13826;51.186;4.450;2022-11-20T02:16:23;29.92;;;16.88;;
26052;SDS011;13826;51.186;4.450;2022-11-20T02:18:51;31.20;;;17.70;;
26052;SDS011;13826;51.186;4.450;2022-11-20T02:24:18;32.55;;;18.10;;
26052;SDS011;13826;51.186;4.450;2022-11-20T02:29:33;30.83;;;16.67;;
26052;SDS011;13826;51.186;4.450;2022-11-20T02:32:38;32.38;;;18.42;;
26052;SDS011;13826;51.186;4.450;2022-11-20T02:35:07;34.35;;;17.75;;
26052;SDS011;13826;51.186;4.450;2022-11-20T02:37:48;43.08;;;18.75;;
26052;SDS011;13826;51.186;4.450;2022-11-20T02:40:17;35.22;;;19.13;;
26052;SDS011;13826;51.186;4.450;2022-11-20T02:42:46;32.33;;;18.65;;
26052;SDS011;13826;51.186;4.450;2022-11-20T02:45:12;36.45;;;20.33;;
26052;SDS011;13826;51.186;4.450;2022-11-20T02:47:38;37.72;;;20.30;;
26052;SDS011;13826;51.186;4.450;2022-11-20T02:50:04;35.50;;;19.42;;
26052;SDS011;13826;51.186;4.450;2022-11-20T02:52:30;40.17;;;21.10;;
26052;SDS011;13826;51.186;4.450;2022-11-20T02:54:56;37.08;;;20.17;;
26052;SDS011;13826;51.186;4.450;2022-11-20T02:57:21;38.28;;;20.48;;
26052;SDS011;13826;51.186;4.450;2022-11-20T02:59:47;38.03;;;20.52;;
26052;SDS011;13826;51.186;4.450;2022-11-20T03:02:13;45.10;;;19.23;;
26052;SDS011;13826;51.186;4.450;2022-11-20T03:04:38;38.45;;;20.55;;
26052;SDS011;13826;51.186;4.450;2022-11-20T03:07:04;38.38;;;19.95;;
26052;SDS011;13826;51.186;4.450;2022-11-20T03:09:30;39.25;;;20.35;;
26052;SDS011;13826;51.186;4.450;2022-11-20T03:11:55;37.95;;;20.55;;
26052;SDS011;13826;51.186;4.450;2022-11-20T03:14:21;42.90;;;20.75;;
26052;SDS011;13826;51.186;4.450;2022-11-20T03:16:47;43.70;;;20.02;;
26052;SDS011;13826;51.186;4.450;2022-11-20T03:19:12;40.70;;;19.83;;
26052;SDS011;13826;51.186;4.450;2022-11-20T03:21:38;40.80;;;20.45;;
26052;SDS011;13826;51.186;4.450;2022-11-20T03:24:04;41.58;;;20.83;;
26052;SDS011;13826;51.186;4.450;2022-11-20T03:26:30;41.80;;;22.02;;
26052;SDS011;13826;51.186;4.450;2022-11-20T03:28:59;39.50;;;20.42;;
26052;SDS011;13826;51.186;4.450;2022-11-20T03:31:30;35.03;;;19.42;;
26052;SDS011;13826;51.186;4.450;2022-11-20T03:33:58;37.35;;;19.75;;
26052;SDS011;13826;51.186;4.450;2022-11-20T03:36:25;40.08;;;20.83;;
26052;SDS011;13826;51.186;4.450;2022-11-20T03:38:52;41.65;;;21.58;;
26052;SDS011;13826;51.186;4.450;2022-11-20T03:41:22;40.83;;;21.55;;
26052;SDS011;13826;51.186;4.450;2022-11-20T03:43:54;45.13;;;22.15;;
26052;SDS011;13826;51.186;4.450;2022-11-20T03:46:22;46.30;;;22.63;;
26052;SDS011;13826;51.186;4.450;2022-11-20T03:48:48;58.33;;;24.27;;
26052;SDS011;13826;51.186;4.450;2022-11-20T03:51:15;52.33;;;25.00;;
26052;SDS011;13826;51.186;4.450;2022-11-20T03:53:43;53.17;;;25.83;;
26052;SDS011;13826;51.186;4.450;2022-11-20T03:56:10;60.65;;;27.15;;
26052;SDS011;13826;51.186;4.450;2022-11-20T03:58:37;55.85;;;26.92;;
26052;SDS011;13826;51.186;4.450;2022-11-20T04:01:08;60.67;;;26.77;;
26052;SDS011;13826;51.186;4.450;2022-11-20T04:03:39;59.97;;;27.15;;
26052;SDS011;13826;51.186;4.450;2022-11-20T04:06:06;59.47;;;27.15;;
26052;SDS011;13826;51.186;4.450;2022-11-20T04:08:34;60.58;;;27.52;;
26052;SDS011;13826;51.186;4.450;2022-11-20T04:11:10;60.58;;;29.48;;
26052;SDS011;13826;51.186;4.450;2022-11-20T04:13:37;60.72;;;29.00;;
26052;SDS011;13826;51.186;4.450;2022-11-20T04:16:03;56.53;;;26.95;;
26052;SDS011;13826;51.186;4.450;2022-11-20T04:18:30;62.25;;;28.75;;
26052;SDS011;13826;51.186;4.450;2022-11-20T04:20:56;63.22;;;29.15;;
26052;SDS011;13826;51.186;4.450;2022-11-20T04:23:22;57.63;;;27.08;;
26052;SDS011;13826;51.186;4.450;2022-11-20T04:25:48;58.38;;;27.90;;
26052;SDS011;13826;51.186;4.450;2022-11-20T04:28:14;58.83;;;27.75;;
26052;SDS011;13826;51.186;4.450;2022-11-20T04:30:39;59.40;;;29.00;;
26052;SDS011;13826;51.186;4.450;2022-11-20T04:33:05;63.97;;;28.38;;
26052;SDS011;13826;51.186;4.450;2022-11-20T04:35:33;59.75;;;27.35;;
26052;SDS011;13826;51.186;4.450;2022-11-20T04:37:59;58.88;;;27.88;;
26052;SDS011;13826;51.186;4.450;2022-11-20T04:40:25;63.35;;;29.23;;
26052;SDS011;13826;51.186;4.450;2022-11-20T04:42:51;57.83;;;28.33;;
26052;SDS011;13826;51.186;4.450;2022-11-20T04:45:16;57.55;;;28.77;;
26052;SDS011;13826;51.186;4.450;2022-11-20T04:47:42;61.65;;;28.52;;
26052;SDS011;13826;51.186;4.450;2022-11-20T04:50:08;56.30;;;26.98;;
26052;SDS011;13826;51.186;4.450;2022-11-20T04:52:35;56.15;;;27.42;;
26052;SDS011;13826;51.186;4.450;2022-11-20T04:55:00;57.17;;;27.30;;
26052;SDS011;13826;51.186;4.450;2022-11-20T04:57:26;52.03;;;25.55;;
26052;SDS011;13826;51.186;4.450;2022-11-20T04:59:51;57.65;;;26.80;;
26052;SDS011;13826;51.186;4.450;2022-11-20T05:02:17;53.10;;;26.38;;
26052;SDS011;13826;51.186;4.450;2022-11-20T05:04:43;59.10;;;29.30;;
26052;SDS011;13826;51.186;4.450;2022-11-20T05:07:09;57.85;;;27.30;;
26052;SDS011;13826;51.186;4.450;2022-11-20T05:09:34;60.65;;;27.05;;
26052;SDS011;13826;51.186;4.450;2022-11-20T05:12:00;55.47;;;26.55;;
26052;SDS011;13826;51.186;4.450;2022-11-20T05:14:25;62.17;;;28.58;;
26052;SDS011;13826;51.186;4.450;2022-11-20T05:16:51;56.47;;;26.63;;
26052;SDS011;13826;51.186;4.450;2022-11-20T05:19:17;56.90;;;28.75;;
26052;SDS011;13826;51.186;4.450;2022-11-20T05:21:42;54.58;;;28.52;;
26052;SDS011;13826;51.186;4.450;2022-11-20T05:24:08;69.43;;;29.95;;
26052;SDS011;13826;51.186;4.450;2022-11-20T05:26:34;58.72;;;28.45;;
26052;SDS011;13826;51.186;4.450;2022-11-20T05:28:59;55.40;;;27.52;;
26052;SDS011;13826;51.186;4.450;2022-11-20T05:31:26;62.25;;;27.90;;
26052;SDS011;13826;51.186;4.450;2022-11-20T05:33:51;62.17;;;26.67;;
26052;SDS011;13826;51.186;4.450;2022-11-20T05:36:17;67.03;;;28.88;;
26052;SDS011;13826;51.186;4.450;2022-11-20T05:38:43;58.28;;;27.95;;
26052;SDS011;13826;51.186;4.450;2022-11-20T05:41:16;55.35;;;27.02;;
26052;SDS011;13826;51.186;4.450;2022-11-20T05:43:43;61.30;;;28.75;;
26052;SDS011;13826;51.186;4.450;2022-11-20T05:46:11;63.15;;;28.13;;
26052;SDS011;13826;51.186;4.450;2022-11-20T05:48:40;57.22;;;27.83;;
26052;SDS011;13826;51.186;4.450;2022-11-20T05:51:07;60.92;;;27.58;;
26052;SDS011;13826;51.186;4.450;2022-11-20T05:53:35;59.22;;;26.42;;
26052;SDS011;13826;51.186;4.450;2022-11-20T05:56:02;54.20;;;26.40;;
26052;SDS011;13826;51.186;4.450;2022-11-20T05:58:29;61.75;;;27.20;;
26052;SDS011;13826;51.186;4.450;2022-11-20T06:01:03;62.67;;;28.88;;
26052;SDS011;13826;51.186;4.450;2022-11-20T06:03:39;55.53;;;27.48;;
26052;SDS011;13826;51.186;4.450;2022-11-20T06:06:07;66.32;;;28.45;;
26052;SDS011;13826;51.186;4.450;2022-11-20T06:08:33;62.30;;;26.40;;
26052;SDS011;13826;51.186;4.450;2022-11-20T06:11:02;64.35;;;28.92;;
26052;SDS011;13826;51.186;4.450;2022-11-20T06:13:29;62.85;;;29.55;;
26052;SDS011;13826;51.186;4.450;2022-11-20T06:15:55;65.57;;;29.95;;
26052;SDS011;13826;51.186;4.450;2022-11-20T06:18:20;67.97;;;30.15;;
26052;SDS011;13826;51.186;4.450;2022-11-20T06:20:46;65.32;;;28.10;;
26052;SDS011;13826;51.186;4.450;2022-11-20T06:23:12;63.35;;;28.73;;
26052;SDS011;13826;51.186;4.450;2022-11-20T06:25:38;64.43;;;27.83;;
26052;SDS011;13826;51.186;4.450;2022-11-20T06:28:05;61.55;;;29.65;;
26052;SDS011;13826;51.186;4.450;2022-11-20T06:30:31;62.08;;;28.38;;
26052;SDS011;13826;51.186;4.450;2022-11-20T06:32:56;62.50;;;30.00;;
26052;SDS011;13826;51.186;4.450;2022-11-20T06:35:22;65.25;;;29.63;;
26052;SDS011;13826;51.186;4.450;2022-11-20T06:37:48;63.42;;;30.63;;
26052;SDS011;13826;51.186;4.450;2022-11-20T06:40:13;65.90;;;27.73;;
26052;SDS011;13826;51.186;4.450;2022-11-20T06:42:39;62.58;;;30.48;;
26052;SDS011;13826;51.186;4.450;2022-11-20T06:45:04;68.63;;;31.38;;
26052;SDS011;13826;51.186;4.450;2022-11-20T06:47:30;58.70;;;27.65;;
26052;SDS011;13826;51.186;4.450;2022-11-20T06:49:56;66.60;;;29.15;;
26052;SDS011;13826;51.186;4.450;2022-11-20T06:52:21;66.28;;;29.45;;
26052;SDS011;13826;51.186;4.450;2022-11-20T06:54:47;67.57;;;30.58;;
26052;SDS011;13826;51.186;4.450;2022-11-20T06:57:13;68.45;;;29.80;;
26052;SDS011;13826;51.186;4.450;2022-11-20T06:59:38;72.07;;;31.60;;
26052;SDS011;13826;51.186;4.450;2022-11-20T07:02:04;66.10;;;29.58;;
26052;SDS011;13826;51.186;4.450;2022-11-20T07:04:30;67.20;;;28.58;;
26052;SDS011;13826;51.186;4.450;2022-11-20T07:06:55;69.72;;;31.42;;
26052;SDS011;13826;51.186;4.450;2022-11-20T07:09:21;65.13;;;29.17;;
26052;SDS011;13826;51.186;4.450;2022-11-20T07:11:46;64.13;;;29.83;;
26052;SDS011;13826;51.186;4.450;2022-11-20T07:14:12;64.38;;;28.98;;
26052;SDS011;13826;51.186;4.450;2022-11-20T07:16:37;62.13;;;28.63;;
26052;SDS011;13826;51.186;4.450;2022-11-20T07:19:03;61.15;;;29.48;;
26052;SDS011;13826;51.186;4.450;2022-11-20T07:21:29;63.47;;;27.92;;
26052;SDS011;13826;51.186;4.450;2022-11-20T07:23:54;65.65;;;29.95;;
26052;SDS011;13826;51.186;4.450;2022-11-20T07:26:20;66.63;;;29.92;;
26052;SDS011;13826;51.186;4.450;2022-11-20T07:28:45;62.58;;;29.77;;
26052;SDS011;13826;51.186;4.450;2022-11-20T07:31:11;58.17;;;28.52;;
26052;SDS011;13826;51.186;4.450;2022-11-20T07:33:38;63.55;;;28.60;;
26052;SDS011;13826;51.186;4.450;2022-11-20T07:36:03;58.40;;;27.40;;
26052;SDS011;13826;51.186;4.450;2022-11-20T07:38:29;63.28;;;28.60;;
26052;SDS011;13826;51.186;4.450;2022-11-20T07:40:55;62.65;;;28.38;;
26052;SDS011;13826;51.186;4.450;2022-11-20T07:43:22;60.35;;;27.17;;
26052;SDS011;13826;51.186;4.450;2022-11-20T07:45:49;55.22;;;26.67;;
26052;SDS011;13826;51.186;4.450;2022-11-20T07:48:15;64.95;;;28.25;;
26052;SDS011;13826;51.186;4.450;2022-11-20T07:50:41;61.20;;;27.17;;
26052;SDS011;13826;51.186;4.450;2022-11-20T07:53:07;59.28;;;28.38;;
26052;SDS011;13826;51.186;4.450;2022-11-20T07:55:32;57.70;;;26.40;;
26052;SDS011;13826;51.186;4.450;2022-11-20T07:57:58;60.17;;;27.52;;
26052;SDS011;13826;51.186;4.450;2022-11-20T08:00:24;65.75;;;29.88;;
26052;SDS011;13826;51.186;4.450;2022-11-20T08:02:51;62.78;;;29.80;;
26052;SDS011;13826;51.186;4.450;2022-11-20T08:05:16;59.40;;;27.88;;
26052;SDS011;13826;51.186;4.450;2022-11-20T08:07:42;56.05;;;26.08;;
26052;SDS011;13826;51.186;4.450;2022-11-20T08:10:10;57.42;;;26.90;;
26052;SDS011;13826;51.186;4.450;2022-11-20T08:12:50;54.72;;;25.10;;
26052;SDS011;13826;51.186;4.450;2022-11-20T08:15:36;58.65;;;28.70;;
26052;SDS011;13826;51.186;4.450;2022-11-20T08:18:03;53.45;;;25.55;;
26052;SDS011;13826;51.186;4.450;2022-11-20T08:20:33;63.40;;;28.58;;
26052;SDS011;13826;51.186;4.450;2022-11-20T08:23:01;59.40;;;26.38;;
26052;SDS011;13826;51.186;4.450;2022-11-20T08:25:29;58.50;;;25.88;;
26052;SDS011;13826;51.186;4.450;2022-11-20T08:27:58;53.40;;;25.80;;
26052;SDS011;13826;51.186;4.450;2022-11-20T08:30:25;64.88;;;28.52;;
26052;SDS011;13826;51.186;4.450;2022-11-20T08:32:51;58.50;;;27.48;;
26052;SDS011;13826;51.186;4.450;2022-11-20T08:35:17;61.15;;;27.98;;
26052;SDS011;13826;51.186;4.450;2022-11-20T08:37:45;58.30;;;26.42;;
26052;SDS011;13826;51.186;4.450;2022-11-20T08:40:12;59.55;;;26.63;;
26052;SDS011;13826;51.186;4.450;2022-11-20T08:42:45;57.83;;;26.55;;
26052;SDS011;13826;51.186;4.450;2022-11-20T08:45:12;61.15;;;26.63;;
26052;SDS011;13826;51.186;4.450;2022-11-20T08:47:38;60.50;;;26.80;;
26052;SDS011;13826;51.186;4.450;2022-11-20T08:50:03;59.40;;;25.75;;
26052;SDS011;13826;51.186;4.450;2022-11-20T08:52:29;65.80;;;26.80;;
26052;SDS011;13826;51.186;4.450;2022-11-20T08:54:55;59.83;;;26.05;;
26052;SDS011;13826;51.186;4.450;2022-11-20T08:57:20;54.88;;;26.33;;
26052;SDS011;13826;51.186;4.450;2022-11-20T08:59:46;63.85;;;27.75;;
26052;SDS011;13826;51.186;4.450;2022-11-20T09:02:11;66.82;;;28.67;;
26052;SDS011;13826;51.186;4.450;2022-11-20T09:04:37;60.60;;;28.13;;
26052;SDS011;13826;51.186;4.450;2022-11-20T09:07:03;67.63;;;27.92;;
26052;SDS011;13826;51.186;4.450;2022-11-20T09:09:28;66.90;;;26.90;;
26052;SDS011;13826;51.186;4.450;2022-11-20T09:11:54;63.17;;;27.55;;
26052;SDS011;13826;51.186;4.450;2022-11-20T09:14:19;75.68;;;29.20;;
26052;SDS011;13826;51.186;4.450;2022-11-20T09:16:46;74.00;;;30.98;;
26052;SDS011;13826;51.186;4.450;2022-11-20T09:19:12;65.53;;;27.92;;
26052;SDS011;13826;51.186;4.450;2022-11-20T09:21:37;64.28;;;28.52;;
26052;SDS011;13826;51.186;4.450;2022-11-20T09:24:04;66.65;;;28.00;;
26052;SDS011;13826;51.186;4.450;2022-11-20T09:26:30;70.28;;;29.88;;
26052;SDS011;13826;51.186;4.450;2022-11-20T09:28:55;63.63;;;26.35;;
26052;SDS011;13826;51.186;4.450;2022-11-20T09:31:22;67.55;;;28.67;;
26052;SDS011;13826;51.186;4.450;2022-11-20T09:33:49;61.08;;;26.48;;
26052;SDS011;13826;51.186;4.450;2022-11-20T09:36:14;78.00;;;30.20;;
26052;SDS011;13826;51.186;4.450;2022-11-20T09:38:41;68.03;;;27.85;;
26052;SDS011;13826;51.186;4.450;2022-11-20T09:41:13;69.60;;;28.58;;
26052;SDS011;13826;51.186;4.450;2022-11-20T09:55:08;77.50;;;28.42;;
26052;SDS011;13826;51.186;4.450;2022-11-20T09:57:37;70.57;;;27.67;;
26052;SDS011;13826;51.186;4.450;2022-11-20T10:00:09;79.25;;;29.60;;
26052;SDS011;13826;51.186;4.450;2022-11-20T10:02:45;71.32;;;27.95;;
26052;SDS011;13826;51.186;4.450;2022-11-20T10:11:13;81.03;;;28.35;;
26052;SDS011;13826;51.186;4.450;2022-11-20T10:27:14;90.40;;;31.55;;
26052;SDS011;13826;51.186;4.450;2022-11-20T10:29:46;97.75;;;30.35;;
26052;SDS011;13826;51.186;4.450;2022-11-20T10:32:20;97.07;;;32.55;;
26052;SDS011;13826;51.186;4.450;2022-11-20T10:35:39;86.50;;;29.58;;
26052;SDS011;13826;51.186;4.450;2022-11-20T10:37:41;98.60;;;32.03;;
26052;SDS011;13826;51.186;4.450;2022-11-20T10:47:49;88.75;;;31.10;;
26052;SDS011;13826;51.186;4.450;2022-11-20T10:50:20;94.78;;;31.58;;
26052;SDS011;13826;51.186;4.450;2022-11-20T10:52:54;100.20;;;33.22;;
26052;SDS011;13826;51.186;4.450;2022-11-20T10:55:55;108.07;;;36.15;;
26052;SDS011;13826;51.186;4.450;2022-11-20T10:58:20;106.25;;;34.03;;
26052;SDS011;13826;51.186;4.450;2022-11-20T11:01:04;102.97;;;34.88;;
26052;SDS011;13826;51.186;4.450;2022-11-20T11:03:44;97.28;;;34.40;;
26052;SDS011;13826;51.186;4.450;2022-11-20T11:06:15;107.43;;;34.38;;
26052;SDS011;13826;51.186;4.450;2022-11-20T11:08:49;96.55;;;32.00;;
26052;SDS011;13826;51.186;4.450;2022-11-20T11:11:21;98.97;;;32.90;;
26052;SDS011;13826;51.186;4.450;2022-11-20T11:16:40;85.57;;;31.55;;
26052;SDS011;13826;51.186;4.450;2022-11-20T11:19:18;99.32;;;32.35;;
26052;SDS011;13826;51.186;4.450;2022-11-20T11:21:47;92.75;;;30.50;;
26052;SDS011;13826;51.186;4.450;2022-11-20T11:24:20;88.47;;;31.08;;
26052;SDS011;13826;51.186;4.450;2022-11-20T11:29:35;84.50;;;29.92;;
26052;SDS011;13826;51.186;4.450;2022-11-20T11:32:34;91.63;;;32.95;;
26052;SDS011;13826;51.186;4.450;2022-11-20T11:34:59;78.53;;;29.58;;
26052;SDS011;13826;51.186;4.450;2022-11-20T11:37:27;78.05;;;29.58;;
26052;SDS011;13826;51.186;4.450;2022-11-20T11:39:58;83.22;;;30.27;;
26052;SDS011;13826;51.186;4.450;2022-11-20T11:42:24;85.88;;;29.35;;
26052;SDS011;13826;51.186;4.450;2022-11-20T11:44:49;70.72;;;26.67;;
26052;SDS011;13826;51.186;4.450;2022-11-20T11:55:09;75.00;;;28.90;;
26052;SDS011;13826;51.186;4.450;2022-11-20T12:00:14;74.68;;;26.92;;
26052;SDS011;13826;51.186;4.450;2022-11-20T12:10:43;66.68;;;24.90;;
26052;SDS011;13826;51.186;4.450;2022-11-20T12:13:30;70.65;;;25.67;;
26052;SDS011;13826;51.186;4.450;2022-11-20T12:16:14;66.22;;;26.02;;
26052;SDS011;13826;51.186;4.450;2022-11-20T12:18:42;64.20;;;24.67;;
26052;SDS011;13826;51.186;4.450;2022-11-20T12:21:20;61.28;;;25.55;;
26052;SDS011;13826;51.186;4.450;2022-11-20T12:35:05;60.20;;;24.35;;
26052;SDS011;13826;51.186;4.450;2022-11-20T12:45:51;56.85;;;21.77;;
26052;SDS011;13826;51.186;4.450;2022-11-20T12:54:32;46.00;;;15.30;;
26052;SDS011;13826;51.186;4.450;2022-11-20T13:00:08;41.13;;;7.68;;
26052;SDS011;13826;51.186;4.450;2022-11-20T13:08:36;14.35;;;5.95;;
26052;SDS011;13826;51.186;4.450;2022-11-20T13:13:42;14.88;;;5.93;;
26052;SDS011;13826;51.186;4.450;2022-11-20T13:19:11;16.17;;;6.28;;
26052;SDS011;13826;51.186;4.450;2022-11-20T13:21:40;13.13;;;6.00;;
26052;SDS011;13826;51.186;4.450;2022-11-20T13:26:48;21.27;;;6.70;;
26052;SDS011;13826;51.186;4.450;2022-11-20T13:29:25;12.57;;;7.43;;
26052;SDS011;13826;51.186;4.450;2022-11-20T13:32:00;15.40;;;5.90;;
26052;SDS011;13826;51.186;4.450;2022-11-20T13:34:53;13.85;;;6.03;;
26052;SDS011;13826;51.186;4.450;2022-11-20T13:37:31;14.63;;;5.88;;
26052;SDS011;13826;51.186;4.450;2022-11-20T13:42:39;13.15;;;5.43;;
26052;SDS011;13826;51.186;4.450;2022-11-20T13:45:11;17.65;;;5.90;;
26052;SDS011;13826;51.186;4.450;2022-11-20T13:47:49;17.38;;;5.88;;
26052;SDS011;13826;51.186;4.450;2022-11-20T13:50:16;14.52;;;6.28;;
26052;SDS011;13826;51.186;4.450;2022-11-20T13:53:00;15.93;;;6.05;;
26052;SDS011;13826;51.186;4.450;2022-11-20T13:56:00;14.20;;;5.75;;
26052;SDS011;13826;51.186;4.450;2022-11-20T13:58:53;14.85;;;6.25;;
26052;SDS011;13826;51.186;4.450;2022-11-20T14:01:30;15.60;;;6.07;;
26052;SDS011;13826;51.186;4.450;2022-11-20T14:03:57;14.98;;;6.78;;
26052;SDS011;13826;51.186;4.450;2022-11-20T14:08:53;20.70;;;7.03;;
26052;SDS011;13826;51.186;4.450;2022-11-20T14:11:27;15.65;;;6.82;;
26052;SDS011;13826;51.186;4.450;2022-11-20T14:14:01;17.50;;;7.55;;
26052;SDS011;13826;51.186;4.450;2022-11-20T14:16:44;14.05;;;6.53;;
26052;SDS011;13826;51.186;4.450;2022-11-20T14:21:48;18.80;;;8.02;;
26052;SDS011;13826;51.186;4.450;2022-11-20T14:24:23;10.50;;;7.10;;
26052;SDS011;13826;51.186;4.450;2022-11-20T14:26:49;10.73;;;6.68;;
26052;SDS011;13826;51.186;4.450;2022-11-20T14:29:18;15.38;;;6.90;;
26052;SDS011;13826;51.186;4.450;2022-11-20T14:31:46;16.65;;;7.50;;
26052;SDS011;13826;51.186;4.450;2022-11-20T14:34:16;13.48;;;5.53;;
26052;SDS011;13826;51.186;4.450;2022-11-20T14:36:45;21.50;;;8.15;;
26052;SDS011;13826;51.186;4.450;2022-11-20T14:39:11;14.75;;;8.18;;
26052;SDS011;13826;51.186;4.450;2022-11-20T14:41:51;18.23;;;9.20;;
26052;SDS011;13826;51.186;4.450;2022-11-20T14:44:17;14.82;;;7.10;;
26052;SDS011;13826;51.186;4.450;2022-11-20T14:46:48;13.32;;;8.40;;
26052;SDS011;13826;51.186;4.450;2022-11-20T14:49:16;14.48;;;7.97;;
26052;SDS011;13826;51.186;4.450;2022-11-20T14:51:42;12.65;;;6.40;;
26052;SDS011;13826;51.186;4.450;2022-11-20T14:54:08;24.70;;;13.40;;
26052;SDS011;13826;51.186;4.450;2022-11-20T14:56:35;14.40;;;9.20;;
26052;SDS011;13826;51.186;4.450;2022-11-20T14:59:01;8.48;;;6.28;;
26052;SDS011;13826;51.186;4.450;2022-11-20T15:01:28;25.50;;;8.35;;
26052;SDS011;13826;51.186;4.450;2022-11-20T15:04:05;8.60;;;6.13;;
26052;SDS011;13826;51.186;4.450;2022-11-20T15:06:32;10.45;;;6.15;;
26052;SDS011;13826;51.186;4.450;2022-11-20T15:08:58;8.27;;;6.07;;
26052;SDS011;13826;51.186;4.450;2022-11-20T15:11:50;9.32;;;5.20;;
26052;SDS011;13826;51.186;4.450;2022-11-20T15:14:18;7.30;;;4.88;;
26052;SDS011;13826;51.186;4.450;2022-11-20T15:16:43;8.10;;;5.30;;
26052;SDS011;13826;51.186;4.450;2022-11-20T15:19:13;8.90;;;5.80;;
26052;SDS011;13826;51.186;4.450;2022-11-20T15:21:43;8.75;;;5.50;;
26052;SDS011;13826;51.186;4.450;2022-11-20T15:24:09;11.70;;;5.95;;
26052;SDS011;13826;51.186;4.450;2022-11-20T15:26:35;7.45;;;5.32;;
26052;SDS011;13826;51.186;4.450;2022-11-20T15:29:02;8.75;;;5.53;;
26052;SDS011;13826;51.186;4.450;2022-11-20T15:31:29;7.72;;;5.32;;
26052;SDS011;13826;51.186;4.450;2022-11-20T15:33:55;12.32;;;8.40;;
26052;SDS011;13826;51.186;4.450;2022-11-20T15:36:20;8.00;;;5.60;;
26052;SDS011;13826;51.186;4.450;2022-11-20T15:38:46;9.15;;;6.22;;
26052;SDS011;13826;51.186;4.450;2022-11-20T15:41:12;9.70;;;5.60;;
26052;SDS011;13826;51.186;4.450;2022-11-20T15:43:38;11.98;;;6.43;;
26052;SDS011;13826;51.186;4.450;2022-11-20T15:46:14;8.73;;;5.32;;
26052;SDS011;13826;51.186;4.450;2022-11-20T15:48:45;12.48;;;5.70;;
26052;SDS011;13826;51.186;4.450;2022-11-20T15:51:35;12.50;;;5.85;;
26052;SDS011;13826;51.186;4.450;2022-11-20T15:54:09;11.70;;;6.18;;
26052;SDS011;13826;51.186;4.450;2022-11-20T15:56:36;10.13;;;5.95;;
26052;SDS011;13826;51.186;4.450;2022-11-20T15:59:02;13.57;;;5.85;;
26052;SDS011;13826;51.186;4.450;2022-11-20T16:01:28;14.02;;;6.13;;
26052;SDS011;13826;51.186;4.450;2022-11-20T16:03:53;11.43;;;5.65;;
26052;SDS011;13826;51.186;4.450;2022-11-20T16:06:19;11.55;;;6.68;;
26052;SDS011;13826;51.186;4.450;2022-11-20T16:08:45;15.15;;;6.97;;
26052;SDS011;13826;51.186;4.450;2022-11-20T16:11:14;14.18;;;6.95;;
26052;SDS011;13826;51.186;4.450;2022-11-20T16:13:41;9.85;;;6.63;;
26052;SDS011;13826;51.186;4.450;2022-11-20T16:16:26;18.15;;;6.65;;
26052;SDS011;13826;51.186;4.450;2022-11-20T16:19:00;12.27;;;6.68;;
26052;SDS011;13826;51.186;4.450;2022-11-20T16:21:26;16.17;;;7.70;;
26052;SDS011;13826;51.186;4.450;2022-11-20T16:23:56;21.73;;;7.25;;
26052;SDS011;13826;51.186;4.450;2022-11-20T16:26:23;19.42;;;6.70;;
26052;SDS011;13826;51.186;4.450;2022-11-20T16:28:48;29.35;;;7.65;;
26052;SDS011;13826;51.186;4.450;2022-11-20T16:31:15;22.38;;;6.25;;
26052;SDS011;13826;51.186;4.450;2022-11-20T16:33:42;25.80;;;7.00;;
26052;SDS011;13826;51.186;4.450;2022-11-20T16:36:08;29.52;;;7.32;;
26052;SDS011;13826;51.186;4.450;2022-11-20T16:38:34;21.38;;;5.50;;